createdAt,value
2018-09-29T00:02:21.256Z,10.50
2018-09-29T00:04:49.439Z,10.50
2018-09-29T00:07:17.614Z,10.50
2018-09-29T00:09:45.799Z,10.50
2018-09-29T00:12:13.958Z,10.50
2018-09-29T00:14:42.142Z,10.50
2018-09-29T00:17:10.306Z,10.50
2018-09-29T00:19:38.473Z,10.50
2018-09-29T00:22:06.863Z,10.40
2018-09-29T00:24:35.030Z,10.40
2018-09-29T00:27:03.200Z,10.40
2018-09-29T00:29:31.346Z,10.40
2018-09-29T00:31:59.574Z,10.40
2018-09-29T00:34:27.742Z,10.40
2018-09-29T00:36:55.905Z,10.40
2018-09-29T00:39:24.063Z,10.40
2018-09-29T00:41:52.206Z,10.30
2018-09-29T00:44:20.357Z,10.40
2018-09-29T00:46:48.559Z,10.40
2018-09-29T00:49:16.710Z,10.30
2018-09-29T00:51:44.891Z,10.40
2018-09-29T00:59:08.917Z,10.30
2018-09-29T01:01:37.061Z,10.30
2018-09-29T01:04:05.245Z,10.20
2018-09-29T01:06:33.406Z,10.30
2018-09-29T01:09:01.575Z,10.30
2018-09-29T01:11:29.733Z,10.20
2018-09-29T01:13:57.897Z,10.30
2018-09-29T01:16:26.106Z,10.30
2018-09-29T01:21:22.171Z,10.20
2018-09-29T01:23:50.356Z,10.20
2018-09-29T01:26:18.530Z,10.10
2018-09-29T01:28:46.698Z,10.20
2018-09-29T01:31:14.842Z,10.10
2018-09-29T01:33:43.026Z,10.10
2018-09-29T01:36:11.182Z,10.10
2018-09-29T01:38:39.393Z,10.00
2018-09-29T01:41:07.550Z,10.00
2018-09-29T01:43:35.813Z,10.00
2018-09-29T01:46:03.962Z,9.90
2018-09-29T01:48:32.126Z,9.90
2018-09-29T01:51:00.285Z,9.80
2018-09-29T01:53:28.454Z,9.80
2018-09-29T01:55:56.631Z,9.70
2018-09-29T01:58:24.794Z,9.60
2018-09-29T02:00:52.957Z,9.60
2018-09-29T02:03:21.106Z,9.50
2018-09-29T02:05:49.274Z,9.40
2018-09-29T02:10:45.365Z,9.20
2018-09-29T02:13:13.519Z,9.20
2018-09-29T02:15:41.679Z,9.10
2018-09-29T02:18:09.817Z,9.00
2018-09-29T02:20:38.041Z,9.00
2018-09-29T02:23:06.178Z,8.90
2018-09-29T02:25:34.334Z,8.80
2018-09-29T02:30:30.402Z,8.50
2018-09-29T02:32:58.571Z,8.40
2018-09-29T02:35:26.725Z,8.30
2018-09-29T02:42:50.762Z,8.10
2018-09-29T02:50:14.770Z,7.80
2018-09-29T02:52:42.923Z,7.80
2018-09-29T02:57:39.009Z,7.80
2018-09-29T03:00:07.161Z,7.70
2018-09-29T03:02:35.334Z,7.80
2018-09-29T03:05:03.517Z,7.80
2018-09-29T03:09:59.614Z,7.80
2018-09-29T03:12:27.769Z,7.80
2018-09-29T03:14:55.982Z,7.80
2018-09-29T03:17:24.126Z,7.80
2018-09-29T03:19:52.316Z,7.80
2018-09-29T03:22:20.455Z,7.80
2018-09-29T03:24:48.628Z,7.80
2018-09-29T03:27:16.777Z,7.70
2018-09-29T03:29:44.939Z,7.70
2018-09-29T03:32:13.105Z,7.70
2018-09-29T03:34:41.262Z,7.60
2018-09-29T03:37:09.398Z,7.60
2018-09-29T03:39:37.546Z,7.50
2018-09-29T03:42:05.700Z,7.50
2018-09-29T03:44:33.861Z,7.40
2018-09-29T03:47:02.014Z,7.40
2018-09-29T03:49:30.189Z,7.40
2018-09-29T03:54:26.293Z,7.30
2018-09-29T03:56:54.465Z,7.30
2018-09-29T03:59:22.638Z,7.20
2018-09-29T04:01:50.789Z,7.10
2018-09-29T04:06:46.891Z,7.00
2018-09-29T04:11:43.025Z,6.90
2018-09-29T04:24:09.053Z,6.70
2018-09-29T04:29:05.195Z,6.70
2018-09-29T04:31:33.353Z,6.70
2018-09-29T04:34:01.544Z,6.60
2018-09-29T04:36:29.718Z,6.60
2018-09-29T04:38:57.878Z,6.60
2018-09-29T04:41:26.085Z,6.60
2018-09-29T04:46:22.185Z,6.50
2018-09-29T04:48:50.336Z,6.50
2018-09-29T04:51:18.507Z,6.50
2018-09-29T04:53:46.678Z,6.50
2018-09-29T04:56:14.857Z,6.50
2018-09-29T04:58:43.014Z,6.50
2018-09-29T05:01:11.176Z,6.40
2018-09-29T05:03:39.313Z,6.40
2018-09-29T05:06:07.690Z,6.40
2018-09-29T05:08:35.844Z,6.30
2018-09-29T05:11:04.082Z,6.30
2018-09-29T05:13:32.250Z,6.20
2018-09-29T05:16:00.402Z,6.20
2018-09-29T05:18:28.603Z,6.20
2018-09-29T05:20:56.767Z,6.20
2018-09-29T05:23:24.961Z,6.20
2018-09-29T05:25:53.126Z,6.20
2018-09-29T05:30:49.209Z,6.20
2018-09-29T05:38:13.221Z,6.10
2018-09-29T05:40:41.391Z,6.10
2018-09-29T05:43:09.590Z,6.10
2018-09-29T05:45:37.757Z,6.00
2018-09-29T05:48:05.913Z,6.00
2018-09-29T05:50:34.079Z,6.00
2018-09-29T05:55:30.226Z,6.00
2018-09-29T05:57:58.418Z,6.10
2018-09-29T06:00:26.648Z,6.00
2018-09-29T06:02:54.758Z,6.10
2018-09-29T06:05:23.003Z,6.20
2018-09-29T06:07:51.096Z,6.20
2018-09-29T06:10:19.246Z,6.30
2018-09-29T06:12:47.401Z,6.40
2018-09-29T06:17:43.694Z,6.40
2018-09-29T06:22:39.845Z,6.50
2018-09-29T06:25:08.018Z,6.50
2018-09-29T06:27:36.190Z,6.60
2018-09-29T06:30:04.466Z,6.70
2018-09-29T06:35:00.544Z,6.80
2018-09-29T06:39:56.707Z,6.90
2018-09-29T06:42:24.873Z,6.90
2018-09-29T06:52:16.926Z,7.20
2018-09-29T06:57:13.080Z,7.40
2018-09-29T06:59:41.253Z,7.50
2018-09-29T07:02:09.418Z,7.60
2018-09-29T07:04:37.574Z,7.70
2018-09-29T07:09:33.725Z,7.90
2018-09-29T07:12:01.877Z,8.00
2018-09-29T07:19:25.966Z,8.30
2018-09-29T07:21:54.194Z,8.40
2018-09-29T07:24:22.351Z,8.50
2018-09-29T07:26:50.510Z,8.60
2018-09-29T07:29:18.682Z,8.70
2018-09-29T07:31:46.834Z,8.70
2018-09-29T07:36:42.969Z,8.70
2018-09-29T07:41:39.779Z,8.80
2018-09-29T07:44:08.478Z,8.80
2018-09-29T07:46:36.618Z,8.90
2018-09-29T07:49:04.930Z,8.90
2018-09-29T07:54:01.026Z,9.10
2018-09-29T07:58:57.085Z,9.20
2018-09-29T08:01:25.254Z,9.30
2018-09-29T08:03:53.434Z,9.30
2018-09-29T08:06:21.666Z,9.40
2018-09-29T08:08:49.807Z,9.40
2018-09-29T08:16:13.953Z,9.60
2018-09-29T08:18:42.086Z,9.60
2018-09-29T08:23:38.170Z,9.70
2018-09-29T08:26:06.339Z,9.70
2018-09-29T08:28:34.502Z,9.70
2018-09-29T08:31:02.647Z,9.80
2018-09-29T08:33:30.811Z,9.90
2018-09-29T08:35:58.951Z,9.90
2018-09-29T08:38:27.434Z,10.00
2018-09-29T08:40:55.621Z,10.10
2018-09-29T08:43:23.906Z,10.20
2018-09-29T08:45:53.221Z,10.20
2018-09-29T08:58:13.266Z,10.40
2018-09-29T09:00:41.446Z,10.50
2018-09-29T09:05:37.546Z,10.70
2018-09-29T09:10:33.642Z,10.80
2018-09-29T09:13:01.806Z,10.90
2018-09-29T09:15:29.986Z,11.00
2018-09-29T09:17:58.223Z,11.10
2018-09-29T09:20:26.415Z,11.10
2018-09-29T09:22:54.621Z,11.20
2018-09-29T09:27:50.713Z,11.30
2018-09-29T09:30:19.039Z,11.40
2018-09-29T09:32:47.137Z,11.50
2018-09-29T09:35:15.312Z,11.60
2018-09-29T09:40:11.416Z,11.80
2018-09-29T09:42:39.561Z,11.90
2018-09-29T09:47:35.950Z,12.00
2018-09-29T09:50:04.146Z,12.00
2018-09-29T09:52:32.306Z,12.10
2018-09-29T09:55:00.475Z,12.10
2018-09-29T09:59:56.715Z,12.10
2018-09-29T10:03:28.867Z,12.10
2018-09-29T10:05:57.290Z,12.30
2018-09-29T10:08:25.442Z,12.30
2018-09-29T10:10:53.662Z,12.30
2018-09-29T10:13:21.838Z,12.30
2018-09-29T10:15:50.110Z,12.40
2018-09-29T10:18:18.294Z,12.50
2018-09-29T10:20:46.458Z,12.60
2018-09-29T10:23:14.631Z,12.60
2018-09-29T10:25:42.807Z,12.70
2018-09-29T10:28:11.010Z,12.70
2018-09-29T10:33:07.129Z,12.70
2018-09-29T10:35:35.377Z,12.70
2018-09-29T10:38:03.531Z,12.60
2018-09-29T10:40:31.729Z,12.70
2018-09-29T10:42:59.918Z,12.80
2018-09-29T10:45:28.100Z,13.00
2018-09-29T10:47:56.247Z,13.00
2018-09-29T10:50:24.486Z,13.10
2018-09-29T10:52:52.691Z,13.10
2018-09-29T10:55:20.806Z,13.10
2018-09-29T10:57:48.966Z,13.10
2018-09-29T11:00:17.125Z,13.10
2018-09-29T11:02:45.367Z,13.10
2018-09-29T11:05:13.500Z,13.20
2018-09-29T11:07:41.661Z,13.20
2018-09-29T11:10:09.847Z,13.40
2018-09-29T11:12:38.053Z,13.30
2018-09-29T11:15:06.259Z,13.60
2018-09-29T11:17:34.402Z,13.50
2018-09-29T11:20:02.565Z,13.50
2018-09-29T11:22:30.746Z,13.70
2018-09-29T11:24:58.918Z,13.80
2018-09-29T11:27:27.091Z,13.80
2018-09-29T11:29:55.259Z,13.80
2018-09-29T11:32:23.417Z,13.80
2018-09-29T11:37:19.514Z,13.90
2018-09-29T11:39:47.677Z,13.90
2018-09-29T11:42:15.834Z,14.00
2018-09-29T11:44:44.011Z,14.10
2018-09-29T11:47:12.161Z,14.10
2018-09-29T11:49:40.349Z,14.20
2018-09-29T11:52:08.537Z,14.30
2018-09-29T11:54:36.702Z,14.30
2018-09-29T11:59:32.816Z,14.30
2018-09-29T12:04:28.981Z,14.40
2018-09-29T12:06:57.153Z,14.50
2018-09-29T12:09:25.342Z,14.50
2018-09-29T12:11:53.518Z,14.60
2018-09-29T12:14:21.679Z,14.60
2018-09-29T12:16:49.857Z,14.80
2018-09-29T12:21:46.002Z,14.70
2018-09-29T12:26:42.086Z,14.90
2018-09-29T12:31:38.178Z,14.80
2018-09-29T12:34:06.354Z,14.90
2018-09-29T12:36:34.576Z,14.90
2018-09-29T12:41:30.739Z,14.90
2018-09-29T12:48:54.774Z,15.00
2018-09-29T12:51:22.993Z,15.10
2018-09-29T12:53:51.123Z,15.20
2018-09-29T12:58:47.313Z,15.30
2018-09-29T13:01:15.556Z,15.30
2018-09-29T13:03:43.818Z,15.30
2018-09-29T13:06:11.995Z,15.40
2018-09-29T13:08:40.162Z,15.40
2018-09-29T13:11:08.448Z,15.40
2018-09-29T13:16:04.483Z,15.40
2018-09-29T13:18:32.774Z,15.40
2018-09-29T13:21:00.933Z,15.50
2018-09-29T13:25:57.066Z,15.50
2018-09-29T13:28:25.258Z,15.50
2018-09-29T13:33:21.366Z,15.60
2018-09-29T13:35:49.573Z,15.60
2018-09-29T13:38:17.745Z,15.50
2018-09-29T13:40:45.914Z,15.50
2018-09-29T13:43:14.100Z,15.60
2018-09-29T13:50:38.129Z,15.70
2018-09-29T13:53:06.578Z,15.70
2018-09-29T13:55:34.758Z,15.70
2018-09-29T13:58:02.949Z,15.80
2018-09-29T14:00:31.430Z,15.80
2018-09-29T14:02:59.698Z,15.80
2018-09-29T14:05:27.858Z,15.80
2018-09-29T14:07:56.023Z,15.80
2018-09-29T14:10:24.189Z,15.80
2018-09-29T14:12:52.369Z,15.80
2018-09-29T14:15:20.537Z,15.90
2018-09-29T14:17:48.734Z,15.90
2018-09-29T14:20:16.902Z,16.00
2018-09-29T14:25:13.049Z,15.90
2018-09-29T14:27:41.211Z,15.90
2018-09-29T14:30:09.390Z,16.00
2018-09-29T14:32:37.529Z,15.90
2018-09-29T14:35:05.786Z,16.00
2018-09-29T14:37:34.014Z,15.90
2018-09-29T14:40:02.196Z,15.90
2018-09-29T14:42:30.406Z,15.90
2018-09-29T14:44:58.597Z,15.90
2018-09-29T14:49:54.773Z,15.90
2018-09-29T14:54:50.842Z,15.80
2018-09-29T14:57:18.994Z,15.90
2018-09-29T14:59:47.190Z,15.90
2018-09-29T15:02:15.342Z,15.90
2018-09-29T15:04:43.481Z,15.80
2018-09-29T15:09:39.579Z,15.90
2018-09-29T15:12:07.858Z,15.90
2018-09-29T15:14:36.038Z,15.80
2018-09-29T15:17:04.218Z,15.90
2018-09-29T15:22:00.501Z,15.80
2018-09-29T15:24:28.685Z,15.70
2018-09-29T15:26:56.853Z,15.70
2018-09-29T15:29:25.018Z,15.70
2018-09-29T15:36:49.115Z,15.50
2018-09-29T15:39:17.214Z,15.60
2018-09-29T15:41:45.406Z,15.60
2018-09-29T15:44:13.594Z,15.50
2018-09-29T15:46:41.757Z,15.50
2018-09-29T15:49:09.936Z,15.60
2018-09-29T15:51:38.369Z,15.50
2018-09-29T15:54:06.595Z,15.50
2018-09-29T15:56:34.774Z,15.50
2018-09-29T15:59:03.077Z,15.40
2018-09-29T16:01:31.313Z,15.40
2018-09-29T16:06:27.484Z,15.40
2018-09-29T16:08:55.816Z,15.30
2018-09-29T16:11:24.979Z,15.30
2018-09-29T16:31:09.298Z,14.80
2018-09-29T16:33:37.467Z,14.70
2018-09-29T16:36:05.950Z,14.70
2018-09-29T16:38:34.184Z,14.60
2018-09-29T16:41:02.277Z,14.60
2018-09-29T16:43:30.437Z,14.50
2018-09-29T16:45:58.599Z,14.30
2018-09-29T16:48:26.794Z,14.30
2018-09-29T16:53:22.873Z,14.10
2018-09-29T16:55:51.046Z,14.00
2018-09-29T16:58:19.207Z,13.80
2018-09-29T17:03:15.484Z,13.60
2018-09-29T17:05:43.716Z,13.50
2018-09-29T17:08:11.885Z,13.40
2018-09-29T17:13:08.083Z,13.10
2018-09-29T17:15:36.278Z,13.00
2018-09-29T17:18:04.437Z,12.90
2018-09-29T17:23:00.553Z,12.70
2018-09-29T17:25:28.722Z,12.60
2018-09-29T17:30:24.901Z,12.50
2018-09-29T17:32:53.177Z,12.50
2018-09-29T17:37:49.349Z,12.20
2018-09-29T17:40:17.523Z,12.20
2018-09-29T17:42:45.733Z,12.10
2018-09-29T17:45:13.961Z,12.00
2018-09-29T17:50:10.373Z,11.70
2018-09-29T17:55:06.561Z,11.30
2018-09-29T17:57:34.714Z,11.20
2018-09-29T18:00:02.925Z,11.10
2018-09-29T18:02:31.094Z,10.90
2018-09-29T18:04:59.273Z,10.80
2018-09-29T18:07:27.437Z,10.70
2018-09-29T18:09:55.630Z,10.60
2018-09-29T18:12:23.785Z,10.60
2018-09-29T18:14:51.938Z,10.50
2018-09-29T18:17:20.103Z,10.40
2018-09-29T18:19:48.338Z,10.30
2018-09-29T18:22:16.506Z,10.30
2018-09-29T18:24:44.666Z,10.20
2018-09-29T18:27:12.928Z,10.20
2018-09-29T18:29:41.153Z,10.20
2018-09-29T18:32:09.523Z,10.20
2018-09-29T18:39:33.750Z,10.00
2018-09-29T18:42:01.923Z,10.00
2018-09-29T18:44:30.095Z,10.00
2018-09-29T18:46:58.305Z,9.90
2018-09-29T18:49:26.564Z,9.80
2018-09-29T18:51:54.695Z,9.70
2018-09-29T18:54:22.866Z,9.70
2018-09-29T18:56:51.145Z,9.60
2018-09-29T18:59:19.402Z,9.50
2018-09-29T19:01:47.609Z,9.40
2018-09-29T19:04:15.762Z,9.30
2018-09-29T19:06:43.942Z,9.20
2018-09-29T19:09:13.182Z,9.20
2018-09-29T19:11:42.358Z,9.10
2018-09-29T19:14:10.552Z,9.00
2018-09-29T19:19:06.822Z,8.90
2018-09-29T19:24:03.046Z,8.70
2018-09-29T19:26:31.322Z,8.60
2018-09-29T19:31:27.448Z,8.50
2018-09-29T19:33:55.695Z,8.50
2018-09-29T19:36:23.908Z,8.50
2018-09-29T19:38:52.082Z,8.40
2018-09-29T19:41:20.626Z,8.40
2018-09-29T19:43:48.851Z,8.30
2018-09-29T19:51:13.020Z,8.30
2018-09-29T19:53:41.171Z,8.40
2018-09-29T19:56:09.337Z,8.50
2018-09-29T19:58:37.637Z,8.50
2018-09-29T20:01:05.830Z,8.60
2018-09-29T20:03:34.027Z,8.50
2018-09-29T20:06:02.162Z,8.50
2018-09-29T20:08:30.373Z,8.50
2018-09-29T20:10:58.614Z,8.50
2018-09-29T20:15:54.890Z,8.40
2018-09-29T20:20:50.994Z,8.50
2018-09-29T20:23:19.138Z,8.50
2018-09-29T20:28:15.290Z,8.30
2018-09-29T20:33:11.402Z,8.10
2018-09-29T20:35:39.570Z,8.00
2018-09-29T20:38:07.729Z,7.70
2018-09-29T20:40:36.019Z,7.50
2018-09-29T20:43:04.194Z,7.50
2018-09-29T20:45:32.385Z,7.40
2018-09-29T20:52:56.466Z,7.30
2018-09-29T20:55:24.652Z,7.30
2018-09-29T20:57:52.853Z,7.20
2018-09-29T21:00:21.013Z,7.10
2018-09-29T21:02:49.208Z,7.10
2018-09-29T21:05:17.377Z,7.00
2018-09-29T21:07:45.543Z,7.00
2018-09-29T21:10:13.705Z,6.90
2018-09-29T21:12:41.906Z,6.90
2018-09-29T21:15:10.039Z,6.80
2018-09-29T21:22:34.922Z,6.70
2018-09-29T21:25:03.103Z,6.60
2018-09-29T21:29:59.374Z,6.50
2018-09-29T21:32:27.538Z,6.40
2018-09-29T21:34:55.713Z,6.40
2018-09-29T21:37:23.882Z,6.30
2018-09-29T21:39:52.062Z,6.30
2018-09-29T21:42:20.306Z,6.30
2018-09-29T21:47:16.356Z,6.20
2018-09-29T21:52:12.512Z,6.00
2018-09-29T21:54:40.621Z,5.90
2018-09-29T21:57:08.815Z,5.90
2018-09-29T21:59:36.973Z,5.80
2018-09-29T22:02:05.157Z,5.80
2018-09-29T22:04:33.508Z,5.90
2018-09-29T22:07:01.623Z,5.90
2018-09-29T22:09:29.781Z,5.90
2018-09-29T22:11:58.039Z,6.60
2018-09-29T22:14:26.205Z,5.80
2018-09-29T22:19:22.309Z,5.80
2018-09-29T22:21:50.486Z,5.70
2018-09-29T22:24:18.645Z,5.70
2018-09-29T22:26:46.856Z,5.60
2018-09-29T22:29:15.062Z,5.60
2018-09-29T22:31:43.254Z,5.50
2018-09-29T22:34:11.428Z,5.50
2018-09-29T22:36:39.601Z,5.50
2018-09-29T22:39:09.446Z,5.40
2018-09-29T22:41:37.692Z,5.30
2018-09-29T22:46:33.839Z,5.20
2018-09-29T22:49:02.109Z,5.20
2018-09-29T22:51:30.334Z,5.10
2018-09-29T22:53:58.462Z,5.10
2018-09-29T22:56:26.676Z,5.10
2018-09-29T22:58:54.898Z,5.10
2018-09-29T23:01:23.079Z,5.00
2018-09-29T23:03:51.257Z,5.00
2018-09-29T23:06:19.446Z,5.00
2018-09-29T23:08:47.640Z,4.90
2018-09-29T23:11:15.793Z,4.90
2018-09-29T23:13:43.970Z,4.90
2018-09-29T23:18:40.106Z,4.70
2018-09-29T23:21:08.356Z,4.60
2018-09-29T23:23:36.526Z,4.60
2018-09-29T23:26:04.706Z,4.50
2018-09-29T23:28:32.878Z,4.50
2018-09-29T23:31:01.086Z,4.50
2018-09-29T23:33:29.313Z,4.50
2018-09-29T23:35:57.500Z,4.60
2018-09-29T23:38:25.673Z,4.50
2018-09-29T23:40:53.842Z,4.50
2018-09-29T23:45:59.435Z,4.40
2018-09-29T23:48:27.609Z,4.40
2018-09-29T23:50:55.773Z,4.40
2018-09-29T23:55:51.865Z,4.50
2018-09-29T23:58:20.029Z,4.50
